sensor_id;sensor_type;location;lat;lon;timestamp;pressure;altitude;pressure_sealevel;temperature;humidity
18323;BME280;9287;49.456;11.064;2023-07-16T00:00:21;97830.84;;;21.31;100.00
18323;BME280;9287;49.456;11.064;2023-07-16T00:02:48;97827.59;;;21.36;100.00
18323;BME280;9287;49.456;11.064;2023-07-16T00:05:18;97830.84;;;21.31;100.00
18323;BME280;9287;49.456;11.064;2023-07-16T00:07:46;97844.41;;;21.29;100.00
18323;BME280;9287;49.456;11.064;2023-07-16T00:10:14;97853.22;;;21.24;100.00
18323;BME280;9287;49.456;11.064;2023-07-16T00:12:44;97832.31;;;21.16;100.00
18323;BME280;9287;49.456;11.064;2023-07-16T00:15:14;97842.13;;;21.01;100.00
18323;BME280;9287;49.456;11.064;2023-07-16T00:17:42;97832.13;;;21.07;100.00
18323;BME280;9287;49.456;11.064;2023-07-16T00:20:10;97855.28;;;20.97;100.00
18323;BME280;9287;49.456;11.064;2023-07-16T00:22:38;97843.06;;;21.14;100.00
18323;BME280;9287;49.456;11.064;2023-07-16T00:25:07;97831.88;;;21.21;100.00
18323;BME280;9287;49.456;11.064;2023-07-16T00:27:35;97847.84;;;21.13;100.00
18323;BME280;9287;49.456;11.064;2023-07-16T00:30:05;97875.06;;;20.99;100.00
18323;BME280;9287;49.456;11.064;2023-07-16T00:32:33;97874.22;;;21.02;100.00
18323;BME280;9287;49.456;11.064;2023-07-16T00:35:01;97876.22;;;21.01;100.00
18323;BME280;9287;49.456;11.064;2023-07-16T00:37:33;97859.72;;;21.14;100.00
18323;BME280;9287;49.456;11.064;2023-07-16T00:40:01;97835.09;;;21.16;100.00
18323;BME280;9287;49.456;11.064;2023-07-16T00:42:29;97855.81;;;21.11;100.00
18323;BME280;9287;49.456;11.064;2023-07-16T00:44:57;97866.84;;;21.15;100.00
18323;BME280;9287;49.456;11.064;2023-07-16T00:47:26;97896.31;;;21.09;100.00
18323;BME280;9287;49.456;11.064;2023-07-16T00:49:54;97908.03;;;21.20;100.00
18323;BME280;9287;49.456;11.064;2023-07-16T00:52:22;97904.94;;;21.14;100.00
18323;BME280;9287;49.456;11.064;2023-07-16T00:54:51;97910.56;;;21.11;100.00
18323;BME280;9287;49.456;11.064;2023-07-16T00:57:22;97930.47;;;21.06;100.00
18323;BME280;9287;49.456;11.064;2023-07-16T00:59:49;97955.59;;;21.22;100.00
18323;BME280;9287;49.456;11.064;2023-07-16T01:02:18;97964.31;;;21.24;100.00
18323;BME280;9287;49.456;11.064;2023-07-16T01:04:47;97970.44;;;21.35;100.00
18323;BME280;9287;49.456;11.064;2023-07-16T01:07:18;97961.53;;;21.24;100.00
18323;BME280;9287;49.456;11.064;2023-07-16T01:09:49;97972.28;;;21.18;100.00
18323;BME280;9287;49.456;11.064;2023-07-16T01:12:20;97969.59;;;21.38;100.00
18323;BME280;9287;49.456;11.064;2023-07-16T01:14:51;97972.00;;;21.36;100.00
18323;BME280;9287;49.456;11.064;2023-07-16T01:17:20;97964.16;;;21.31;100.00
18323;BME280;9287;49.456;11.064;2023-07-16T01:19:50;97970.69;;;21.21;100.00
18323;BME280;9287;49.456;11.064;2023-07-16T01:22:41;97981.69;;;21.28;100.00
18323;BME280;9287;49.456;11.064;2023-07-16T01:25:48;97995.28;;;21.19;100.00
18323;BME280;9287;49.456;11.064;2023-07-16T01:28:41;98011.59;;;21.17;100.00
18323;BME280;9287;49.456;11.064;2023-07-16T01:31:15;98012.34;;;21.21;100.00
18323;BME280;9287;49.456;11.064;2023-07-16T01:33:44;98008.94;;;21.10;100.00
18323;BME280;9287;49.456;11.064;2023-07-16T01:36:12;98002.06;;;20.95;100.00
18323;BME280;9287;49.456;11.064;2023-07-16T01:38:42;98002.38;;;20.73;100.00
18323;BME280;9287;49.456;11.064;2023-07-16T01:41:10;98011.47;;;20.47;100.00
18323;BME280;9287;49.456;11.064;2023-07-16T01:43:38;97989.19;;;20.54;100.00
18323;BME280;9287;49.456;11.064;2023-07-16T01:46:06;97979.50;;;20.39;100.00
18323;BME280;9287;49.456;11.064;2023-07-16T01:48:35;97983.63;;;20.54;100.00
18323;BME280;9287;49.456;11.064;2023-07-16T01:51:04;98007.59;;;20.41;100.00
18323;BME280;9287;49.456;11.064;2023-07-16T01:53:32;98019.06;;;20.43;100.00
18323;BME280;9287;49.456;11.064;2023-07-16T01:56:00;98015.44;;;20.46;100.00
18323;BME280;9287;49.456;11.064;2023-07-16T01:58:28;97978.34;;;20.33;100.00
18323;BME280;9287;49.456;11.064;2023-07-16T02:00:56;97972.81;;;20.33;100.00
18323;BME280;9287;49.456;11.064;2023-07-16T02:03:24;97971.97;;;20.36;100.00
18323;BME280;9287;49.456;11.064;2023-07-16T02:05:53;97993.34;;;20.39;100.00
18323;BME280;9287;49.456;11.064;2023-07-16T02:08:21;97971.00;;;20.19;100.00
18323;BME280;9287;49.456;11.064;2023-07-16T02:10:49;97983.16;;;20.29;100.00
18323;BME280;9287;49.456;11.064;2023-07-16T02:13:17;97977.13;;;20.37;100.00
18323;BME280;9287;49.456;11.064;2023-07-16T02:15:46;97990.97;;;20.41;100.00
18323;BME280;9287;49.456;11.064;2023-07-16T02:18:13;97967.41;;;20.22;100.00
18323;BME280;9287;49.456;11.064;2023-07-16T02:20:43;97963.91;;;20.18;100.00
18323;BME280;9287;49.456;11.064;2023-07-16T02:23:12;97974.66;;;20.12;100.00
18323;BME280;9287;49.456;11.064;2023-07-16T02:25:40;97998.69;;;20.23;100.00
18323;BME280;9287;49.456;11.064;2023-07-16T02:28:07;97997.72;;;20.06;100.00
18323;BME280;9287;49.456;11.064;2023-07-16T02:30:35;97992.09;;;20.09;100.00
18323;BME280;9287;49.456;11.064;2023-07-16T02:33:03;97993.59;;;20.17;100.00
18323;BME280;9287;49.456;11.064;2023-07-16T02:35:31;97996.84;;;20.12;100.00
18323;BME280;9287;49.456;11.064;2023-07-16T02:37:59;97999.16;;;20.17;100.00
18323;BME280;9287;49.456;11.064;2023-07-16T02:40:28;97968.75;;;20.10;100.00
18323;BME280;9287;49.456;11.064;2023-07-16T02:42:56;97971.44;;;20.17;100.00
18323;BME280;9287;49.456;11.064;2023-07-16T02:45:24;97993.66;;;20.14;100.00
18323;BME280;9287;49.456;11.064;2023-07-16T02:47:51;97987.66;;;20.19;100.00
18323;BME280;9287;49.456;11.064;2023-07-16T02:50:19;98011.00;;;20.22;100.00
18323;BME280;9287;49.456;11.064;2023-07-16T02:52:47;98018.19;;;20.15;100.00
18323;BME280;9287;49.456;11.064;2023-07-16T02:55:15;98026.88;;;20.17;100.00
18323;BME280;9287;49.456;11.064;2023-07-16T02:57:44;98029.72;;;20.10;100.00
18323;BME280;9287;49.456;11.064;2023-07-16T03:00:12;98018.81;;;20.27;100.00
18323;BME280;9287;49.456;11.064;2023-07-16T03:02:42;98035.84;;;20.29;100.00
18323;BME280;9287;49.456;11.064;2023-07-16T03:05:10;98029.88;;;20.30;100.00
18323;BME280;9287;49.456;11.064;2023-07-16T03:07:38;98021.56;;;20.30;100.00
18323;BME280;9287;49.456;11.064;2023-07-16T03:10:06;98007.91;;;20.12;100.00
18323;BME280;9287;49.456;11.064;2023-07-16T03:12:34;98004.88;;;20.03;100.00
18323;BME280;9287;49.456;11.064;2023-07-16T03:15:05;97994.63;;;20.00;100.00
18323;BME280;9287;49.456;11.064;2023-07-16T03:17:33;98016.03;;;19.96;100.00
18323;BME280;9287;49.456;11.064;2023-07-16T03:20:01;98026.84;;;20.21;100.00
18323;BME280;9287;49.456;11.064;2023-07-16T03:22:29;98038.72;;;20.22;100.00
18323;BME280;9287;49.456;11.064;2023-07-16T03:24:57;98049.63;;;20.36;100.00
18323;BME280;9287;49.456;11.064;2023-07-16T03:27:25;98048.97;;;20.25;100.00
18323;BME280;9287;49.456;11.064;2023-07-16T03:29:53;98053.44;;;20.15;100.00
18323;BME280;9287;49.456;11.064;2023-07-16T03:32:22;98044.34;;;20.14;100.00
18323;BME280;9287;49.456;11.064;2023-07-16T03:35:00;98043.06;;;20.23;100.00
18323;BME280;9287;49.456;11.064;2023-07-16T03:37:27;98032.50;;;20.10;100.00
18323;BME280;9287;49.456;11.064;2023-07-16T03:39:55;98042.84;;;20.06;100.00
18323;BME280;9287;49.456;11.064;2023-07-16T03:42:23;98056.41;;;19.97;100.00
18323;BME280;9287;49.456;11.064;2023-07-16T03:44:51;98059.59;;;19.96;100.00
18323;BME280;9287;49.456;11.064;2023-07-16T03:47:19;98057.81;;;20.12;100.00
18323;BME280;9287;49.456;11.064;2023-07-16T03:49:49;98054.03;;;19.96;100.00
18323;BME280;9287;49.456;11.064;2023-07-16T03:52:16;98069.00;;;20.05;100.00
18323;BME280;9287;49.456;11.064;2023-07-16T03:54:44;98067.44;;;20.04;100.00
18323;BME280;9287;49.456;11.064;2023-07-16T03:57:12;98069.00;;;20.05;100.00
18323;BME280;9287;49.456;11.064;2023-07-16T03:59:40;98079.28;;;20.08;100.00
18323;BME280;9287;49.456;11.064;2023-07-16T04:02:08;98075.28;;;20.09;100.00
18323;BME280;9287;49.456;11.064;2023-07-16T04:04:36;98082.31;;;20.17;100.00
18323;BME280;9287;49.456;11.064;2023-07-16T04:07:10;98096.19;;;20.17;100.00
18323;BME280;9287;49.456;11.064;2023-07-16T04:09:39;98098.56;;;20.15;100.00
18323;BME280;9287;49.456;11.064;2023-07-16T04:12:14;98114.75;;;20.21;100.00
18323;BME280;9287;49.456;11.064;2023-07-16T04:14:46;98113.81;;;20.38;100.00
18323;BME280;9287;49.456;11.064;2023-07-16T04:17:14;98116.78;;;20.54;100.00
18323;BME280;9287;49.456;11.064;2023-07-16T04:19:42;98112.13;;;20.44;100.00
18323;BME280;9287;49.456;11.064;2023-07-16T04:22:11;98118.19;;;20.32;100.00
18323;BME280;9287;49.456;11.064;2023-07-16T04:24:39;98121.69;;;20.43;100.00
18323;BME280;9287;49.456;11.064;2023-07-16T04:27:07;98128.44;;;20.42;100.00
18323;BME280;9287;49.456;11.064;2023-07-16T04:29:44;98144.88;;;20.19;100.00
18323;BME280;9287;49.456;11.064;2023-07-16T04:32:15;98160.91;;;20.00;100.00
18323;BME280;9287;49.456;11.064;2023-07-16T04:34:43;98189.38;;;20.04;100.00
18323;BME280;9287;49.456;11.064;2023-07-16T04:37:14;98197.31;;;20.02;100.00
18323;BME280;9287;49.456;11.064;2023-07-16T04:39:42;98199.97;;;19.72;100.00
18323;BME280;9287;49.456;11.064;2023-07-16T04:42:09;98201.22;;;20.08;100.00
18323;BME280;9287;49.456;11.064;2023-07-16T04:44:37;98184.66;;;20.01;100.00
18323;BME280;9287;49.456;11.064;2023-07-16T04:47:05;98184.06;;;19.76;100.00
18323;BME280;9287;49.456;11.064;2023-07-16T04:49:34;98182.41;;;19.89;100.00
18323;BME280;9287;49.456;11.064;2023-07-16T04:52:03;98187.84;;;20.00;100.00
18323;BME280;9287;49.456;11.064;2023-07-16T04:54:36;98205.72;;;19.92;100.00
18323;BME280;9287;49.456;11.064;2023-07-16T04:57:09;98179.91;;;20.02;100.00
18323;BME280;9287;49.456;11.064;2023-07-16T04:59:40;98183.47;;;20.02;100.00
18323;BME280;9287;49.456;11.064;2023-07-16T05:02:11;98189.31;;;20.11;100.00
18323;BME280;9287;49.456;11.064;2023-07-16T05:04:40;98187.22;;;19.78;100.00
18323;BME280;9287;49.456;11.064;2023-07-16T05:07:10;98194.81;;;20.15;100.00
18323;BME280;9287;49.456;11.064;2023-07-16T05:09:39;98198.59;;;20.35;100.00
18323;BME280;9287;49.456;11.064;2023-07-16T05:12:07;98200.19;;;20.33;100.00
18323;BME280;9287;49.456;11.064;2023-07-16T05:14:43;98216.72;;;20.47;100.00
18323;BME280;9287;49.456;11.064;2023-07-16T05:17:12;98203.34;;;20.35;100.00
18323;BME280;9287;49.456;11.064;2023-07-16T05:19:41;98208.66;;;20.19;100.00
18323;BME280;9287;49.456;11.064;2023-07-16T05:22:09;98213.13;;;20.05;100.00
18323;BME280;9287;49.456;11.064;2023-07-16T05:24:36;98221.88;;;20.00;100.00
18323;BME280;9287;49.456;11.064;2023-07-16T05:27:06;98215.44;;;20.10;100.00
18323;BME280;9287;49.456;11.064;2023-07-16T05:29:34;98230.19;;;19.41;100.00
18323;BME280;9287;49.456;11.064;2023-07-16T05:32:03;98228.31;;;19.24;100.00
18323;BME280;9287;49.456;11.064;2023-07-16T05:34:31;98243.53;;;19.64;100.00
18323;BME280;9287;49.456;11.064;2023-07-16T05:37:00;98231.91;;;19.87;100.00
18323;BME280;9287;49.456;11.064;2023-07-16T05:39:27;98234.91;;;19.44;100.00
18323;BME280;9287;49.456;11.064;2023-07-16T05:41:55;98246.69;;;19.66;100.00
18323;BME280;9287;49.456;11.064;2023-07-16T05:44:25;98249.91;;;19.58;100.00
18323;BME280;9287;49.456;11.064;2023-07-16T05:46:52;98241.94;;;19.67;100.00
18323;BME280;9287;49.456;11.064;2023-07-16T05:49:20;98233.91;;;19.79;100.00
18323;BME280;9287;49.456;11.064;2023-07-16T05:51:48;98241.84;;;19.81;100.00
18323;BME280;9287;49.456;11.064;2023-07-16T05:54:16;98242.50;;;19.96;100.00
18323;BME280;9287;49.456;11.064;2023-07-16T05:56:43;98245.91;;;19.66;100.00
18323;BME280;9287;49.456;11.064;2023-07-16T05:59:11;98236.28;;;19.81;100.00
18323;BME280;9287;49.456;11.064;2023-07-16T06:01:40;98238.53;;;19.97;100.00
18323;BME280;9287;49.456;11.064;2023-07-16T06:04:08;98228.53;;;20.10;100.00
18323;BME280;9287;49.456;11.064;2023-07-16T06:06:36;98243.16;;;20.10;100.00
18323;BME280;9287;49.456;11.064;2023-07-16T06:09:07;98247.91;;;20.13;100.00
18323;BME280;9287;49.456;11.064;2023-07-16T06:11:35;98256.16;;;20.21;100.00
18323;BME280;9287;49.456;11.064;2023-07-16T06:14:03;98262.38;;;19.87;100.00
18323;BME280;9287;49.456;11.064;2023-07-16T06:16:31;98265.53;;;19.89;100.00
18323;BME280;9287;49.456;11.064;2023-07-16T06:19:00;98265.03;;;20.01;100.00
18323;BME280;9287;49.456;11.064;2023-07-16T06:21:28;98265.28;;;20.17;100.00
18323;BME280;9287;49.456;11.064;2023-07-16T06:23:55;98256.59;;;20.15;100.00
18323;BME280;9287;49.456;11.064;2023-07-16T06:26:23;98272.41;;;20.19;100.00
18323;BME280;9287;49.456;11.064;2023-07-16T06:28:51;98277.03;;;20.32;100.00
18323;BME280;9287;49.456;11.064;2023-07-16T06:31:18;98274.75;;;20.24;100.00
18323;BME280;9287;49.456;11.064;2023-07-16T06:33:46;98290.78;;;19.98;100.00
18323;BME280;9287;49.456;11.064;2023-07-16T06:36:17;98279.66;;;20.05;100.00
18323;BME280;9287;49.456;11.064;2023-07-16T06:38:46;98284.28;;;20.19;100.00
18323;BME280;9287;49.456;11.064;2023-07-16T06:41:14;98283.69;;;19.94;100.00
18323;BME280;9287;49.456;11.064;2023-07-16T06:43:42;98283.47;;;20.26;100.00
18323;BME280;9287;49.456;11.064;2023-07-16T06:46:09;98280.97;;;20.42;100.00
18323;BME280;9287;49.456;11.064;2023-07-16T06:48:37;98272.81;;;20.62;100.00
18323;BME280;9287;49.456;11.064;2023-07-16T06:51:05;98279.91;;;20.66;100.00
18323;BME280;9287;49.456;11.064;2023-07-16T06:53:34;98293.41;;;21.02;100.00
18323;BME280;9287;49.456;11.064;2023-07-16T06:56:02;98281.63;;;21.28;100.00
18323;BME280;9287;49.456;11.064;2023-07-16T06:58:31;98282.53;;;21.48;100.00
18323;BME280;9287;49.456;11.064;2023-07-16T07:00:59;98286.31;;;21.88;100.00
18323;BME280;9287;49.456;11.064;2023-07-16T07:03:28;98289.44;;;21.94;100.00
18323;BME280;9287;49.456;11.064;2023-07-16T07:05:56;98285.84;;;21.67;100.00
18323;BME280;9287;49.456;11.064;2023-07-16T07:08:23;98289.94;;;21.59;100.00
18323;BME280;9287;49.456;11.064;2023-07-16T07:10:54;98302.13;;;21.38;100.00
18323;BME280;9287;49.456;11.064;2023-07-16T07:13:24;98301.56;;;21.19;100.00
18323;BME280;9287;49.456;11.064;2023-07-16T07:15:52;98298.19;;;20.98;100.00
18323;BME280;9287;49.456;11.064;2023-07-16T07:18:22;98301.25;;;20.73;100.00
18323;BME280;9287;49.456;11.064;2023-07-16T07:20:55;98301.44;;;20.55;100.00
18323;BME280;9287;49.456;11.064;2023-07-16T07:23:23;98310.06;;;20.64;100.00
18323;BME280;9287;49.456;11.064;2023-07-16T07:25:54;98317.38;;;20.44;100.00
18323;BME280;9287;49.456;11.064;2023-07-16T07:28:23;98319.56;;;20.67;100.00
18323;BME280;9287;49.456;11.064;2023-07-16T07:30:50;98323.31;;;20.46;100.00
18323;BME280;9287;49.456;11.064;2023-07-16T07:33:19;98315.50;;;20.27;100.00
18323;BME280;9287;49.456;11.064;2023-07-16T07:35:47;98304.34;;;20.41;100.00
18323;BME280;9287;49.456;11.064;2023-07-16T07:38:15;98307.13;;;20.41;100.00
18323;BME280;9287;49.456;11.064;2023-07-16T07:40:44;98311.16;;;20.74;100.00
18323;BME280;9287;49.456;11.064;2023-07-16T07:43:13;98313.66;;;20.99;100.00
18323;BME280;9287;49.456;11.064;2023-07-16T07:45:41;98313.59;;;21.06;100.00
18323;BME280;9287;49.456;11.064;2023-07-16T07:48:09;98307.28;;;21.02;100.00
18323;BME280;9287;49.456;11.064;2023-07-16T07:50:37;98304.88;;;21.04;100.00
18323;BME280;9287;49.456;11.064;2023-07-16T07:53:05;98306.09;;;21.03;100.00
18323;BME280;9287;49.456;11.064;2023-07-16T07:55:33;98302.28;;;20.90;100.00
18323;BME280;9287;49.456;11.064;2023-07-16T07:58:02;98289.06;;;21.01;100.00
18323;BME280;9287;49.456;11.064;2023-07-16T08:00:31;98292.66;;;20.98;100.00
18323;BME280;9287;49.456;11.064;2023-07-16T08:02:59;98296.09;;;21.09;100.00
18323;BME280;9287;49.456;11.064;2023-07-16T08:05:27;98308.31;;;21.15;100.00
18323;BME280;9287;49.456;11.064;2023-07-16T08:07:55;98302.28;;;21.27;100.00
18323;BME280;9287;49.456;11.064;2023-07-16T08:10:23;98306.28;;;21.23;100.00
18323;BME280;9287;49.456;11.064;2023-07-16T08:12:50;98315.38;;;21.27;100.00
18323;BME280;9287;49.456;11.064;2023-07-16T08:15:18;98312.84;;;21.02;100.00
18323;BME280;9287;49.456;11.064;2023-07-16T08:17:47;98323.25;;;20.94;100.00
18323;BME280;9287;49.456;11.064;2023-07-16T08:20:16;98326.94;;;20.80;100.00
18323;BME280;9287;49.456;11.064;2023-07-16T08:22:43;98332.81;;;20.90;100.00
18323;BME280;9287;49.456;11.064;2023-07-16T08:25:11;98330.31;;;20.99;100.00
18323;BME280;9287;49.456;11.064;2023-07-16T08:27:39;98333.06;;;20.61;100.00
18323;BME280;9287;49.456;11.064;2023-07-16T08:30:09;98328.75;;;20.98;100.00
18323;BME280;9287;49.456;11.064;2023-07-16T08:32:36;98329.50;;;21.02;100.00
18323;BME280;9287;49.456;11.064;2023-07-16T08:35:07;98327.72;;;21.18;100.00
18323;BME280;9287;49.456;11.064;2023-07-16T08:37:38;98330.28;;;21.02;100.00
18323;BME280;9287;49.456;11.064;2023-07-16T08:40:07;98335.88;;;20.99;100.00
18323;BME280;9287;49.456;11.064;2023-07-16T08:42:36;98324.56;;;21.20;100.00
18323;BME280;9287;49.456;11.064;2023-07-16T08:45:06;98323.84;;;21.12;100.00
18323;BME280;9287;49.456;11.064;2023-07-16T08:47:35;98318.09;;;21.87;100.00
18323;BME280;9287;49.456;11.064;2023-07-16T08:50:06;98327.78;;;22.06;100.00
18323;BME280;9287;49.456;11.064;2023-07-16T08:52:34;98329.03;;;22.52;100.00
18323;BME280;9287;49.456;11.064;2023-07-16T08:55:02;98336.50;;;22.82;100.00
18323;BME280;9287;49.456;11.064;2023-07-16T08:57:31;98334.00;;;22.87;100.00
18323;BME280;9287;49.456;11.064;2023-07-16T09:00:00;98334.25;;;22.97;100.00
18323;BME280;9287;49.456;11.064;2023-07-16T09:02:31;98340.19;;;22.99;100.00
18323;BME280;9287;49.456;11.064;2023-07-16T09:05:00;98334.94;;;22.81;100.00
18323;BME280;9287;49.456;11.064;2023-07-16T09:07:30;98344.53;;;22.30;98.66
18323;BME280;9287;49.456;11.064;2023-07-16T09:09:59;98340.53;;;22.31;100.00
18323;BME280;9287;49.456;11.064;2023-07-16T09:12:28;98336.16;;;22.53;99.25
18323;BME280;9287;49.456;11.064;2023-07-16T09:14:56;98343.25;;;23.83;93.46
18323;BME280;9287;49.456;11.064;2023-07-16T09:17:25;98346.91;;;24.33;82.99
18323;BME280;9287;49.456;11.064;2023-07-16T09:19:54;98343.25;;;24.36;81.31
18323;BME280;9287;49.456;11.064;2023-07-16T09:22:22;98340.63;;;25.22;72.70
18323;BME280;9287;49.456;11.064;2023-07-16T09:24:51;98347.34;;;26.81;63.03
18323;BME280;9287;49.456;11.064;2023-07-16T09:27:19;98340.00;;;25.98;69.74
18323;BME280;9287;49.456;11.064;2023-07-16T09:29:48;98344.47;;;28.24;55.65
18323;BME280;9287;49.456;11.064;2023-07-16T09:32:17;98333.22;;;29.28;49.33
18323;BME280;9287;49.456;11.064;2023-07-16T09:34:49;98340.75;;;28.86;49.36
18323;BME280;9287;49.456;11.064;2023-07-16T09:37:18;98340.09;;;29.73;47.63
18323;BME280;9287;49.456;11.064;2023-07-16T09:39:46;98338.13;;;30.39;44.38
18323;BME280;9287;49.456;11.064;2023-07-16T09:42:16;98335.38;;;31.26;41.65
18323;BME280;9287;49.456;11.064;2023-07-16T09:44:47;98341.16;;;30.84;42.34
18323;BME280;9287;49.456;11.064;2023-07-16T09:47:15;98335.91;;;29.23;44.69
18323;BME280;9287;49.456;11.064;2023-07-16T09:49:43;98329.94;;;27.86;53.05
18323;BME280;9287;49.456;11.064;2023-07-16T09:52:12;98337.84;;;27.13;57.01
18323;BME280;9287;49.456;11.064;2023-07-16T09:54:41;98329.25;;;26.34;61.23
18323;BME280;9287;49.456;11.064;2023-07-16T09:57:13;98326.81;;;26.37;60.23
18323;BME280;9287;49.456;11.064;2023-07-16T09:59:44;98316.38;;;25.86;62.33
18323;BME280;9287;49.456;11.064;2023-07-16T10:02:13;98313.94;;;25.05;67.04
18323;BME280;9287;49.456;11.064;2023-07-16T10:04:41;98317.25;;;25.29;65.99
18323;BME280;9287;49.456;11.064;2023-07-16T10:07:19;98313.78;;;25.25;66.33
18323;BME280;9287;49.456;11.064;2023-07-16T10:09:52;98318.97;;;25.39;64.89
18323;BME280;9287;49.456;11.064;2023-07-16T10:12:22;98314.47;;;26.21;61.90
18323;BME280;9287;49.456;11.064;2023-07-16T10:15:01;98311.88;;;26.52;57.13
18323;BME280;9287;49.456;11.064;2023-07-16T10:17:35;98321.22;;;26.84;58.83
18323;BME280;9287;49.456;11.064;2023-07-16T10:20:07;98319.53;;;26.26;57.84
18323;BME280;9287;49.456;11.064;2023-07-16T10:22:40;98312.06;;;25.15;63.64
18323;BME280;9287;49.456;11.064;2023-07-16T10:25:10;98307.09;;;24.61;65.18
18323;BME280;9287;49.456;11.064;2023-07-16T10:27:53;98307.59;;;23.91;67.84
18323;BME280;9287;49.456;11.064;2023-07-16T10:30:30;98310.00;;;23.73;70.08
18323;BME280;9287;49.456;11.064;2023-07-16T10:33:03;98314.25;;;23.61;72.05
18323;BME280;9287;49.456;11.064;2023-07-16T10:35:41;98305.34;;;23.86;71.83
18323;BME280;9287;49.456;11.064;2023-07-16T10:38:23;98304.56;;;24.02;73.05
18323;BME280;9287;49.456;11.064;2023-07-16T10:40:51;98300.09;;;24.85;69.40
18323;BME280;9287;49.456;11.064;2023-07-16T10:43:24;98296.72;;;25.48;61.12
18323;BME280;9287;49.456;11.064;2023-07-16T10:46:08;98298.97;;;25.12;64.99
18323;BME280;9287;49.456;11.064;2023-07-16T10:48:46;98305.78;;;25.94;62.57
18323;BME280;9287;49.456;11.064;2023-07-16T10:51:15;98302.75;;;25.76;63.01
18323;BME280;9287;49.456;11.064;2023-07-16T10:53:45;98297.56;;;25.20;63.26
18323;BME280;9287;49.456;11.064;2023-07-16T10:56:17;98295.28;;;24.57;67.27
18323;BME280;9287;49.456;11.064;2023-07-16T10:58:48;98289.53;;;24.32;70.76
18323;BME280;9287;49.456;11.064;2023-07-16T11:01:18;98274.78;;;24.92;65.91
18323;BME280;9287;49.456;11.064;2023-07-16T11:03:49;98282.56;;;25.14;64.04
18323;BME280;9287;49.456;11.064;2023-07-16T11:06:20;98288.16;;;25.14;64.03
18323;BME280;9287;49.456;11.064;2023-07-16T11:08:50;98293.84;;;25.52;62.72
18323;BME280;9287;49.456;11.064;2023-07-16T11:11:27;98290.88;;;26.10;61.90
18323;BME280;9287;49.456;11.064;2023-07-16T11:13:55;98281.13;;;26.40;56.10
18323;BME280;9287;49.456;11.064;2023-07-16T11:16:25;98269.25;;;26.35;55.53
18323;BME280;9287;49.456;11.064;2023-07-16T11:18:56;98272.72;;;26.74;55.03
18323;BME280;9287;49.456;11.064;2023-07-16T11:21:25;98276.09;;;26.69;52.66
18323;BME280;9287;49.456;11.064;2023-07-16T11:23:53;98267.97;;;26.96;51.35
18323;BME280;9287;49.456;11.064;2023-07-16T11:26:22;98274.19;;;26.31;53.43
18323;BME280;9287;49.456;11.064;2023-07-16T11:28:50;98276.19;;;26.44;52.98
18323;BME280;9287;49.456;11.064;2023-07-16T11:31:18;98274.41;;;25.99;53.85
18323;BME280;9287;49.456;11.064;2023-07-16T11:33:51;98269.84;;;25.80;58.09
18323;BME280;9287;49.456;11.064;2023-07-16T11:36:19;98262.28;;;25.51;57.26
18323;BME280;9287;49.456;11.064;2023-07-16T11:38:48;98274.31;;;25.23;57.50
18323;BME280;9287;49.456;11.064;2023-07-16T11:41:20;98270.31;;;25.24;60.88
18323;BME280;9287;49.456;11.064;2023-07-16T11:43:49;98249.03;;;25.93;61.05
18323;BME280;9287;49.456;11.064;2023-07-16T11:46:22;98258.47;;;26.47;56.83
18323;BME280;9287;49.456;11.064;2023-07-16T11:48:54;98254.13;;;26.33;55.28
18323;BME280;9287;49.456;11.064;2023-07-16T11:51:21;98255.88;;;26.52;52.91
18323;BME280;9287;49.456;11.064;2023-07-16T11:53:49;98258.41;;;26.12;53.75
18323;BME280;9287;49.456;11.064;2023-07-16T11:56:17;98250.88;;;26.34;52.44
18323;BME280;9287;49.456;11.064;2023-07-16T11:58:45;98247.13;;;26.97;51.73
18323;BME280;9287;49.456;11.064;2023-07-16T12:01:13;98249.06;;;27.10;49.04
18323;BME280;9287;49.456;11.064;2023-07-16T12:03:41;98242.09;;;26.58;50.94
18323;BME280;9287;49.456;11.064;2023-07-16T12:06:11;98239.16;;;27.18;50.57
18323;BME280;9287;49.456;11.064;2023-07-16T12:08:38;98243.56;;;27.28;50.69
18323;BME280;9287;49.456;11.064;2023-07-16T12:11:07;98240.81;;;26.93;51.58
18323;BME280;9287;49.456;11.064;2023-07-16T12:13:34;98241.00;;;26.77;51.96
18323;BME280;9287;49.456;11.064;2023-07-16T12:16:02;98247.53;;;26.40;52.94
18323;BME280;9287;49.456;11.064;2023-07-16T12:18:30;98239.56;;;26.38;53.21
18323;BME280;9287;49.456;11.064;2023-07-16T12:20:58;98239.03;;;26.30;55.40
18323;BME280;9287;49.456;11.064;2023-07-16T12:23:27;98235.31;;;26.21;54.86
18323;BME280;9287;49.456;11.064;2023-07-16T12:25:55;98235.88;;;26.28;54.34
18323;BME280;9287;49.456;11.064;2023-07-16T12:28:23;98241.19;;;26.61;52.21
18323;BME280;9287;49.456;11.064;2023-07-16T12:30:51;98239.03;;;26.30;52.51
18323;BME280;9287;49.456;11.064;2023-07-16T12:33:19;98225.13;;;26.40;53.64
18323;BME280;9287;49.456;11.064;2023-07-16T12:35:47;98232.69;;;26.52;55.31
18323;BME280;9287;49.456;11.064;2023-07-16T12:38:15;98234.53;;;26.67;52.95
18323;BME280;9287;49.456;11.064;2023-07-16T12:40:45;98231.88;;;26.98;53.64
18323;BME280;9287;49.456;11.064;2023-07-16T12:43:13;98228.19;;;27.11;51.78
18323;BME280;9287;49.456;11.064;2023-07-16T12:45:40;98220.03;;;27.56;49.85
18323;BME280;9287;49.456;11.064;2023-07-16T12:48:08;98225.59;;;27.78;50.11
18323;BME280;9287;49.456;11.064;2023-07-16T12:50:36;98222.91;;;27.65;47.79
18323;BME280;9287;49.456;11.064;2023-07-16T12:53:04;98220.03;;;27.56;49.47
18323;BME280;9287;49.456;11.064;2023-07-16T12:55:32;98230.78;;;27.27;49.06
18323;BME280;9287;49.456;11.064;2023-07-16T12:58:02;98214.63;;;27.31;49.18
18323;BME280;9287;49.456;11.064;2023-07-16T13:00:30;98222.06;;;27.25;49.55
18323;BME280;9287;49.456;11.064;2023-07-16T13:02:58;98198.03;;;27.15;50.42